createdAt,value
2018-02-22T00:01:08.916Z,102616.82
2018-02-22T00:03:37.285Z,102614.28
2018-02-22T00:06:05.612Z,102606.17
2018-02-22T00:08:33.935Z,102611.17
2018-02-22T00:11:02.397Z,102606.11
2018-02-22T00:13:30.742Z,102607.57
2018-02-22T00:15:59.080Z,102598.56
2018-02-22T00:18:27.432Z,102594.93
2018-02-22T00:20:55.748Z,102594.88
2018-02-22T00:23:24.086Z,102605.24
2018-02-22T00:25:52.437Z,102600.12
2018-02-22T00:28:20.778Z,102603.78
2018-02-22T00:30:49.080Z,102610.45
2018-02-22T00:33:18.685Z,102604.07
2018-02-22T00:35:47.005Z,102610.02
2018-02-22T00:38:15.363Z,102603.61
2018-02-22T00:40:43.732Z,102604.30
2018-02-22T00:43:12.060Z,102605.61
2018-02-22T00:45:40.387Z,102610.88
2018-02-22T00:48:08.744Z,102602.45
2018-02-22T00:50:37.066Z,102592.98
2018-02-22T00:53:05.387Z,102598.17
2018-02-22T00:55:33.835Z,102592.17
2018-02-22T00:58:02.971Z,102596.27
2018-02-22T01:00:32.049Z,102598.44
2018-02-22T01:03:00.376Z,102588.16
2018-02-22T01:05:28.710Z,102590.40
2018-02-22T01:07:57.033Z,102586.73
2018-02-22T01:10:25.377Z,102587.20
2018-02-22T01:12:53.688Z,102587.13
2018-02-22T01:15:22.776Z,102583.38
2018-02-22T01:17:52.238Z,102586.11
2018-02-22T01:20:20.567Z,102585.80
2018-02-22T01:22:48.907Z,102584.19
2018-02-22T01:25:17.240Z,102579.48
2018-02-22T01:27:45.557Z,102580.20
2018-02-22T01:30:13.865Z,102577.00
2018-02-22T01:32:42.981Z,102579.13
2018-02-22T01:35:11.331Z,102576.12
2018-02-22T01:37:40.414Z,102565.56
2018-02-22T01:40:09.037Z,102576.85
2018-02-22T01:42:37.357Z,102565.92
2018-02-22T01:45:05.680Z,102574.71
2018-02-22T01:47:34.040Z,102579.18
2018-02-22T01:50:02.365Z,102572.48
2018-02-22T01:52:30.689Z,102571.15
2018-02-22T01:54:59.052Z,102576.77
2018-02-22T01:57:27.361Z,102570.89
2018-02-22T01:59:55.699Z,102571.23
2018-02-22T02:02:24.223Z,102575.91
2018-02-22T02:04:52.537Z,102572.97
2018-02-22T02:07:20.873Z,102575.23
2018-02-22T02:09:49.220Z,102573.91
2018-02-22T02:12:17.548Z,102560.19
2018-02-22T02:14:45.875Z,102566.25
2018-02-22T02:17:14.208Z,102565.14
2018-02-22T02:19:43.309Z,102560.86
2018-02-22T02:22:12.421Z,102555.05
2018-02-22T02:24:40.958Z,102566.48
2018-02-22T02:27:09.296Z,102560.61
2018-02-22T02:29:37.612Z,102557.38
2018-02-22T02:32:05.943Z,102559.19
2018-02-22T02:34:34.276Z,102563.17
2018-02-22T02:37:02.586Z,102554.41
2018-02-22T02:39:30.971Z,102557.52
2018-02-22T02:41:59.280Z,102551.98
2018-02-22T02:44:27.635Z,102553.67
2018-02-22T02:46:56.311Z,102556.94
2018-02-22T02:49:24.652Z,102555.95
2018-02-22T02:51:52.960Z,102560.41
2018-02-22T02:54:21.306Z,102565.52
2018-02-22T02:56:49.617Z,102562.30
2018-02-22T02:59:17.946Z,102563.70
2018-02-22T03:01:46.313Z,102558.91
2018-02-22T03:04:14.642Z,102566.16
2018-02-22T03:06:42.988Z,102561.11
2018-02-22T03:09:11.614Z,102569.73
2018-02-22T03:11:39.949Z,102562.09
2018-02-22T03:14:08.265Z,102564.48
2018-02-22T03:16:37.361Z,102554.42
2018-02-22T03:19:06.473Z,102554.45
2018-02-22T03:21:34.817Z,102559.55
2018-02-22T03:24:03.137Z,102556.86
2018-02-22T03:26:31.455Z,102546.47
2018-02-22T03:28:59.788Z,102553.38
2018-02-22T03:31:28.349Z,102550.16
2018-02-22T03:33:57.424Z,102544.84
2018-02-22T03:36:25.749Z,102545.02
2018-02-22T03:38:54.099Z,102542.30
2018-02-22T03:41:23.204Z,102537.35
2018-02-22T03:43:52.282Z,102538.20
2018-02-22T03:46:20.646Z,102544.03
2018-02-22T03:48:48.962Z,102547.17
2018-02-22T03:51:17.277Z,102537.98
2018-02-22T03:53:46.037Z,102545.25
2018-02-22T03:56:14.349Z,102538.27
2018-02-22T03:58:42.677Z,102544.63
2018-02-22T04:01:11.052Z,102551.65
2018-02-22T04:03:40.138Z,102549.48
2018-02-22T04:06:08.466Z,102547.34
2018-02-22T04:08:36.799Z,102547.23
2018-02-22T04:11:05.120Z,102545.94
2018-02-22T04:13:33.472Z,102549.45
2018-02-22T04:16:03.054Z,102551.50
2018-02-22T04:18:31.390Z,102547.64
2018-02-22T04:20:59.696Z,102556.80
2018-02-22T04:23:28.811Z,102549.54
2018-02-22T04:25:57.936Z,102550.38
2018-02-22T04:28:26.263Z,102544.60
2018-02-22T04:30:54.610Z,102551.25
2018-02-22T04:33:22.925Z,102550.50
2018-02-22T04:35:51.228Z,102545.75
2018-02-22T04:38:20.833Z,102552.83
2018-02-22T04:40:49.147Z,102561.21
2018-02-22T04:43:17.495Z,102554.07
2018-02-22T04:45:46.628Z,102551.71
2018-02-22T04:48:14.938Z,102551.20
2018-02-22T04:50:43.257Z,102557.41
2018-02-22T04:53:11.596Z,102554.67
2018-02-22T04:55:39.906Z,102553.64
2018-02-22T04:58:09.008Z,102556.77
2018-02-22T05:00:38.602Z,102559.91
2018-02-22T05:03:07.806Z,102553.00
2018-02-22T05:05:36.983Z,102547.44
2018-02-22T05:08:05.349Z,102551.70
2018-02-22T05:10:33.747Z,102545.78
2018-02-22T05:13:02.049Z,102540.95
2018-02-22T05:15:31.142Z,102548.03
2018-02-22T05:17:59.437Z,102538.68
2018-02-22T05:20:27.751Z,102542.98
2018-02-22T05:22:56.448Z,102546.97
2018-02-22T05:25:24.756Z,102542.35
2018-02-22T05:27:53.865Z,102540.87
2018-02-22T05:30:22.997Z,102548.01
2018-02-22T05:32:51.315Z,102545.27
2018-02-22T05:35:19.619Z,102539.70
2018-02-22T05:37:48.257Z,102547.25
2018-02-22T05:40:16.595Z,102550.49
2018-02-22T05:42:44.929Z,102546.62
2018-02-22T05:45:13.785Z,102541.65
2018-02-22T05:47:42.111Z,102546.08
2018-02-22T05:50:10.401Z,102539.59
2018-02-22T05:52:39.508Z,102539.78
2018-02-22T05:55:08.566Z,102548.78
2018-02-22T05:57:36.897Z,102544.05
2018-02-22T06:00:05.253Z,102537.34
2018-02-22T06:02:33.589Z,102541.78
2018-02-22T06:05:01.921Z,102544.92
2018-02-22T06:07:30.564Z,102541.79
2018-02-22T06:09:58.874Z,102544.42
2018-02-22T06:12:27.962Z,102545.33
2018-02-22T06:14:57.098Z,102546.06
2018-02-22T06:17:25.418Z,102542.72
2018-02-22T06:19:53.740Z,102546.09
2018-02-22T06:22:22.086Z,102539.58
2018-02-22T06:24:50.398Z,102545.36
2018-02-22T06:27:18.746Z,102559.30
2018-02-22T06:29:47.838Z,102555.89
2018-02-22T06:32:16.201Z,102554.45
2018-02-22T06:34:44.518Z,102558.33
2018-02-22T06:37:12.922Z,102558.59
2018-02-22T06:39:41.228Z,102557.75
2018-02-22T06:42:09.535Z,102560.55
2018-02-22T06:44:38.648Z,102557.42
2018-02-22T06:47:07.730Z,102563.98
2018-02-22T06:49:36.823Z,102562.56
2018-02-22T06:52:06.418Z,102558.81
2018-02-22T06:54:34.954Z,102560.73
2018-02-22T06:57:03.847Z,102560.93
2018-02-22T06:59:32.336Z,102560.73
2018-02-22T07:02:00.656Z,102561.30
2018-02-22T07:04:28.984Z,102564.42
2018-02-22T07:06:57.334Z,102573.64
2018-02-22T07:09:26.397Z,102582.67
2018-02-22T07:11:55.081Z,102564.13
2018-02-22T07:14:24.837Z,102565.31
2018-02-22T07:16:53.267Z,102566.97
2018-02-22T07:19:21.563Z,102570.59
2018-02-22T07:21:49.921Z,102569.95
2018-02-22T07:24:18.234Z,102574.89
2018-02-22T07:26:47.345Z,102579.08
2018-02-22T07:29:15.726Z,102574.90
2018-02-22T07:31:44.892Z,102585.27
2018-02-22T07:34:13.218Z,102583.02
2018-02-22T07:36:41.760Z,102584.62
2018-02-22T07:39:10.057Z,102583.81
2018-02-22T07:41:38.383Z,102583.86
2018-02-22T07:44:06.707Z,102583.20
2018-02-22T07:46:35.037Z,102580.36
2018-02-22T07:49:03.369Z,102574.33
2018-02-22T07:51:31.703Z,102583.62
2018-02-22T07:54:00.793Z,102578.14
2018-02-22T07:56:29.089Z,102577.48
2018-02-22T07:58:57.500Z,102579.20
2018-02-22T08:01:26.605Z,102578.72
2018-02-22T08:03:54.929Z,102575.59
2018-02-22T08:06:24.046Z,102572.51
2018-02-22T08:08:52.347Z,102578.28
2018-02-22T08:11:21.447Z,102577.42
2018-02-22T08:13:50.564Z,102581.98
2018-02-22T08:16:18.896Z,102579.44
2018-02-22T08:18:47.235Z,102572.44
2018-02-22T08:21:16.044Z,102571.42
2018-02-22T08:23:44.341Z,102568.82
2018-02-22T08:26:12.664Z,102570.70
2018-02-22T08:28:41.009Z,102564.48
2018-02-22T08:31:10.100Z,102568.33
2018-02-22T08:33:39.181Z,102572.87
2018-02-22T08:36:07.541Z,102569.24
2018-02-22T08:38:35.870Z,102566.45
2018-02-22T08:41:04.944Z,102569.27
2018-02-22T08:43:33.673Z,102576.00
2018-02-22T08:46:02.056Z,102571.89
2018-02-22T08:48:30.382Z,102574.25
2018-02-22T08:50:58.745Z,102578.39
2018-02-22T08:53:27.091Z,102578.17
2018-02-22T08:55:55.400Z,102579.17
2018-02-22T08:58:23.763Z,102574.33
2018-02-22T09:00:52.239Z,102579.31
2018-02-22T09:03:20.554Z,102573.46
2018-02-22T09:05:49.347Z,102568.08
2018-02-22T09:08:17.669Z,102564.03
2018-02-22T09:10:46.033Z,102559.63
2018-02-22T09:13:15.126Z,102561.53
2018-02-22T09:15:43.526Z,102557.69
2018-02-22T09:18:11.832Z,102568.95
2018-02-22T09:20:40.173Z,102565.06
2018-02-22T09:23:08.497Z,102565.91
2018-02-22T09:25:36.833Z,102569.55
2018-02-22T09:28:05.544Z,102571.21
2018-02-22T09:30:33.869Z,102566.56
2018-02-22T09:33:02.967Z,102566.39
2018-02-22T09:35:32.074Z,102561.59
2018-02-22T09:38:01.156Z,102559.37
2018-02-22T09:40:29.480Z,102565.34
2018-02-22T09:42:57.905Z,102564.95
2018-02-22T09:45:26.220Z,102565.77
2018-02-22T09:47:54.532Z,102572.23
2018-02-22T09:50:23.219Z,102571.80
2018-02-22T09:52:51.672Z,102580.84
2018-02-22T09:55:20.007Z,102580.22
2018-02-22T09:57:48.347Z,102586.61
2018-02-22T10:00:16.700Z,102590.44
2018-02-22T10:02:45.038Z,102590.53
2018-02-22T10:05:13.384Z,102583.07
2018-02-22T10:07:41.724Z,102585.59
2018-02-22T10:10:10.812Z,102587.33
2018-02-22T10:12:40.193Z,102586.25
2018-02-22T10:15:08.482Z,102587.43
2018-02-22T10:17:36.811Z,102580.03
2018-02-22T10:20:05.156Z,102581.05
2018-02-22T10:22:34.229Z,102589.37
2018-02-22T10:25:02.554Z,102584.14
2018-02-22T10:27:31.136Z,102577.09
2018-02-22T10:30:00.227Z,102579.30
2018-02-22T10:32:28.553Z,102577.36
2018-02-22T10:34:57.244Z,102576.87
2018-02-22T10:37:25.541Z,102575.31
2018-02-22T10:39:54.629Z,102579.92
2018-02-22T10:42:23.783Z,102575.91
2018-02-22T10:44:52.095Z,102571.36
2018-02-22T10:47:20.399Z,102575.37
2018-02-22T10:49:48.749Z,102570.64
2018-02-22T10:52:17.078Z,102572.94
2018-02-22T10:54:45.388Z,102565.36
2018-02-22T10:57:13.983Z,102563.20
2018-02-22T10:59:42.410Z,102574.02
2018-02-22T11:02:16.412Z,102572.32
2018-02-22T11:04:44.711Z,102568.77
2018-02-22T11:07:13.032Z,102576.91
2018-02-22T11:09:41.359Z,102566.41
2018-02-22T11:12:09.680Z,102573.55
2018-02-22T11:14:38.025Z,102571.27
2018-02-22T11:17:06.880Z,102572.56
2018-02-22T11:19:35.204Z,102571.44
2018-02-22T11:22:03.524Z,102575.73
2018-02-22T11:24:31.877Z,102571.49
2018-02-22T11:27:00.204Z,102568.21
2018-02-22T11:29:28.543Z,102574.85
2018-02-22T11:31:56.880Z,102566.80
2018-02-22T11:34:25.182Z,102568.64
2018-02-22T11:36:53.500Z,102564.66
2018-02-22T11:39:22.237Z,102563.69
2018-02-22T11:41:50.571Z,102565.39
2018-02-22T11:44:19.640Z,102557.12
2018-02-22T11:46:48.001Z,102558.84
2018-02-22T11:49:16.391Z,102556.00
2018-02-22T11:51:44.750Z,102557.87
2018-02-22T11:54:13.099Z,102552.53
2018-02-22T11:56:42.162Z,102554.39
2018-02-22T11:59:10.514Z,102545.16
2018-02-22T12:01:39.331Z,102549.61
2018-02-22T12:04:07.666Z,102543.14
2018-02-22T12:06:35.994Z,102533.66
2018-02-22T12:09:04.348Z,102533.30
2018-02-22T12:11:32.684Z,102526.21
2018-02-22T12:14:01.017Z,102524.77
2018-02-22T12:16:29.363Z,102521.45
2018-02-22T12:18:57.681Z,102525.28
2018-02-22T12:21:25.998Z,102525.06
2018-02-22T12:23:54.879Z,102526.55
2018-02-22T12:26:23.220Z,102521.77
2018-02-22T12:28:51.669Z,102523.77
2018-02-22T12:31:20.018Z,102517.50
2018-02-22T12:33:49.110Z,102519.48
2018-02-22T12:36:18.227Z,102513.67
2018-02-22T12:38:46.593Z,102519.19
2018-02-22T12:41:14.916Z,102512.81
2018-02-22T12:43:43.288Z,102508.76
2018-02-22T12:46:12.248Z,102505.83
2018-02-22T12:48:40.578Z,102510.48
2018-02-22T12:51:08.930Z,102507.91
2018-02-22T12:53:37.304Z,102509.39
2018-02-22T12:56:05.721Z,102502.00
2018-02-22T12:58:34.084Z,102506.24
2018-02-22T13:01:02.440Z,102500.33
2018-02-22T13:03:30.788Z,102507.16
2018-02-22T13:05:59.107Z,102503.30
2018-02-22T13:08:27.725Z,102499.06
2018-02-22T13:10:56.153Z,102492.72
2018-02-22T13:13:24.488Z,102485.67
2018-02-22T13:15:52.857Z,102476.32
2018-02-22T13:18:21.312Z,102476.35
2018-02-22T13:20:49.628Z,102479.52
2018-02-22T13:23:17.980Z,102475.23
2018-02-22T13:25:46.312Z,102461.75
2018-02-22T13:28:14.752Z,102460.21
2018-02-22T13:30:43.256Z,102459.77
2018-02-22T13:33:29.025Z,102457.23
2018-02-22T13:35:57.489Z,102459.67
2018-02-22T13:38:43.652Z,102462.52
2018-02-22T13:41:12.027Z,102452.53
2018-02-22T13:43:40.367Z,102451.89
2018-02-22T13:46:08.758Z,102437.02
2018-02-22T13:48:55.193Z,102444.09
2018-02-22T13:51:23.552Z,102453.14
2018-02-22T13:53:51.880Z,102447.98
2018-02-22T13:56:37.958Z,102445.13
2018-02-22T13:59:06.301Z,102446.06
2018-02-22T14:01:52.444Z,102450.74
2018-02-22T14:04:20.921Z,102441.95
2018-02-22T14:06:49.301Z,102441.64
2018-02-22T14:09:17.903Z,102446.31
2018-02-22T14:11:46.249Z,102445.58
2018-02-22T14:14:14.584Z,102441.00
2018-02-22T14:16:42.990Z,102439.25
2018-02-22T14:19:11.427Z,102439.78
2018-02-22T14:21:39.751Z,102437.96
2018-02-22T14:24:08.150Z,102437.83
2018-02-22T14:26:36.515Z,102434.13
2018-02-22T14:29:04.842Z,102434.16
2018-02-22T14:31:33.289Z,102436.98
2018-02-22T14:34:01.724Z,102438.58
2018-02-22T14:36:30.076Z,102443.30
2018-02-22T14:38:58.538Z,102441.61
2018-02-22T14:41:27.699Z,102431.81
2018-02-22T14:43:56.081Z,102428.39
2018-02-22T14:46:24.503Z,102432.16
2018-02-22T14:48:52.893Z,102437.74
2018-02-22T14:51:21.293Z,102437.77
2018-02-22T14:53:49.798Z,102435.44
2018-02-22T14:56:18.169Z,102440.47
2018-02-22T14:58:47.308Z,102432.67
2018-02-22T15:01:15.686Z,102430.40
2018-02-22T15:03:44.076Z,102431.73
2018-02-22T15:06:12.428Z,102430.92
2018-02-22T15:08:40.829Z,102432.40
2018-02-22T15:11:09.194Z,102431.62
2018-02-22T15:13:37.517Z,102428.59
2018-02-22T15:16:07.288Z,102428.02
2018-02-22T15:18:35.643Z,102419.98
2018-02-22T15:21:05.453Z,102424.95
2018-02-22T15:23:34.609Z,102429.80
2018-02-22T15:26:02.975Z,102420.98
2018-02-22T15:28:31.325Z,102424.91
2018-02-22T15:30:59.693Z,102424.08
2018-02-22T15:33:28.072Z,102430.84
2018-02-22T15:35:57.172Z,102428.98
2018-02-22T15:38:25.971Z,102432.86
2018-02-22T15:40:54.338Z,102428.78
2018-02-22T15:43:22.734Z,102426.48
2018-02-22T15:45:51.182Z,102426.13
2018-02-22T15:48:19.587Z,102426.59
2018-02-22T15:50:47.929Z,102423.67
2018-02-22T15:53:16.316Z,102425.98
2018-02-22T15:55:45.472Z,102427.88
2018-02-22T15:58:13.794Z,102419.88
2018-02-22T16:00:43.024Z,102426.05
2018-02-22T16:03:11.355Z,102422.36
2018-02-22T16:05:39.723Z,102423.37
2018-02-22T16:08:08.873Z,102428.37
2018-02-22T16:10:37.207Z,102418.69
2018-02-22T16:13:05.525Z,102424.73
2018-02-22T16:15:33.860Z,102421.72
2018-02-22T16:18:02.192Z,102421.61
2018-02-22T16:20:30.568Z,102422.66
2018-02-22T16:22:59.226Z,102420.31
2018-02-22T16:25:27.571Z,102419.42
2018-02-22T16:27:55.916Z,102422.55
2018-02-22T16:30:24.280Z,102424.96
2018-02-22T16:32:52.632Z,102426.12
2018-02-22T16:35:20.972Z,102429.83
2018-02-22T16:37:49.324Z,102429.97
2018-02-22T16:40:17.700Z,102422.48
2018-02-22T16:42:46.046Z,102422.95
2018-02-22T16:45:14.488Z,102425.70
2018-02-22T16:47:42.816Z,102428.87
2018-02-22T16:50:11.964Z,102434.67
2018-02-22T16:52:40.302Z,102432.52
2018-02-22T16:55:09.430Z,102432.52
2018-02-22T16:57:37.741Z,102433.55
2018-02-22T17:00:06.084Z,102428.70
2018-02-22T17:02:34.401Z,102435.64
2018-02-22T17:05:02.753Z,102433.37
2018-02-22T17:07:31.563Z,102434.95
2018-02-22T17:09:59.896Z,102434.33
2018-02-22T17:12:28.276Z,102431.16
2018-02-22T17:14:56.678Z,102438.17
2018-02-22T17:17:42.887Z,102431.53
2018-02-22T17:20:11.235Z,102430.61
2018-02-22T17:22:39.610Z,102426.39
2018-02-22T17:25:07.952Z,102426.44
2018-02-22T17:27:42.190Z,102424.62
2018-02-22T17:30:16.759Z,102427.61
2018-02-22T17:32:45.874Z,102420.95
2018-02-22T17:35:19.651Z,102417.81
2018-02-22T17:37:50.980Z,102421.97
2018-02-22T17:40:19.526Z,102414.95
2018-02-22T17:42:47.884Z,102422.47
2018-02-22T17:45:16.624Z,102416.27
2018-02-22T17:47:44.961Z,102424.78
2018-02-22T17:50:13.334Z,102421.83
2018-02-22T17:52:41.676Z,102417.93
2018-02-22T17:55:10.002Z,102421.66
2018-02-22T17:57:38.346Z,102426.11
2018-02-22T18:00:06.745Z,102423.52
2018-02-22T18:02:35.057Z,102430.10
2018-02-22T18:05:04.148Z,102430.98
2018-02-22T18:07:32.928Z,102434.96
2018-02-22T18:10:01.297Z,102438.75
2018-02-22T18:12:29.647Z,102433.08
2018-02-22T18:14:58.008Z,102436.08
2018-02-22T18:17:26.353Z,102441.02
2018-02-22T18:19:54.759Z,102436.95
2018-02-22T18:22:23.150Z,102443.71
2018-02-22T18:24:51.495Z,102445.84
2018-02-22T18:27:19.860Z,102448.03
2018-02-22T18:29:48.983Z,102445.09
2018-02-22T18:32:17.272Z,102454.70
2018-02-22T18:34:45.619Z,102450.20
2018-02-22T18:37:19.537Z,102456.20
2018-02-22T18:39:48.609Z,102462.42
2018-02-22T18:42:20.514Z,102460.87
2018-02-22T18:44:54.476Z,102471.61
2018-02-22T18:47:23.196Z,102461.25
2018-02-22T18:49:51.538Z,102464.47
2018-02-22T18:52:21.273Z,102468.66
2018-02-22T18:54:49.602Z,102470.00
2018-02-22T18:57:17.954Z,102466.23
2018-02-22T18:59:47.037Z,102474.00
2018-02-22T19:02:16.127Z,102462.94
2018-02-22T19:04:45.230Z,102466.17
2018-02-22T19:07:14.339Z,102461.63
2018-02-22T19:09:43.012Z,102454.44
2018-02-22T19:12:12.078Z,102460.47
2018-02-22T19:14:40.633Z,102452.28
2018-02-22T19:17:08.977Z,102454.81
2018-02-22T19:19:38.065Z,102459.38
2018-02-22T19:22:07.132Z,102453.78
2018-02-22T19:24:35.468Z,102457.13
2018-02-22T19:27:03.777Z,102460.48
2018-02-22T19:29:32.214Z,102463.44
2018-02-22T19:32:01.619Z,102450.30
2018-02-22T19:34:29.930Z,102454.11
2018-02-22T19:36:58.308Z,102461.20
2018-02-22T19:39:26.650Z,102457.02
2018-02-22T19:41:55.003Z,102455.18
2018-02-22T19:44:23.347Z,102450.94
2018-02-22T19:46:51.694Z,102447.05
2018-02-22T19:49:20.024Z,102446.97
2018-02-22T19:51:48.316Z,102444.58
2018-02-22T19:54:16.880Z,102443.42
2018-02-22T19:56:45.176Z,102451.97
2018-02-22T19:59:13.499Z,102451.55
2018-02-22T20:01:42.645Z,102443.31
2018-02-22T20:04:10.971Z,102446.59
2018-02-22T20:06:40.054Z,102448.59
2018-02-22T20:09:09.674Z,102447.13
2018-02-22T20:11:38.111Z,102454.07
2018-02-22T20:14:06.596Z,102445.98
2018-02-22T20:16:35.959Z,102446.64
2018-02-22T20:19:04.297Z,102452.95
2018-02-22T20:21:33.394Z,102452.40
2018-02-22T20:24:02.501Z,102452.95
2018-02-22T20:26:31.557Z,102445.32
2018-02-22T20:29:00.556Z,102454.09
2018-02-22T20:31:28.911Z,102447.84
2018-02-22T20:33:57.236Z,102448.00
2018-02-22T20:36:26.328Z,102437.75
2018-02-22T20:38:55.489Z,102441.09
2018-02-22T20:41:23.844Z,102435.97
2018-02-22T20:43:52.192Z,102432.41
2018-02-22T20:46:20.572Z,102436.59
2018-02-22T20:48:49.116Z,102432.32
2018-02-22T20:51:18.218Z,102432.39
2018-02-22T20:53:46.564Z,102426.30
2018-02-22T20:56:14.904Z,102431.45
2018-02-22T20:58:43.236Z,102438.41
2018-02-22T21:01:12.683Z,102437.98
2018-02-22T21:03:41.237Z,102445.88
2018-02-22T21:06:09.626Z,102449.59
2018-02-22T21:08:37.990Z,102451.51
2018-02-22T21:11:06.314Z,102445.56
2018-02-22T21:13:35.396Z,102445.89
2018-02-22T21:16:04.504Z,102448.97
2018-02-22T21:18:33.612Z,102454.84
2018-02-22T21:21:01.917Z,102452.05
2018-02-22T21:23:30.677Z,102451.91
2018-02-22T21:25:59.017Z,102451.81
2018-02-22T21:28:27.340Z,102453.34
2018-02-22T21:30:55.766Z,102452.63
2018-02-22T21:33:24.909Z,102450.91
2018-02-22T21:35:53.217Z,102455.76
2018-02-22T21:38:21.633Z,102461.48
2018-02-22T21:40:50.022Z,102446.52
2018-02-22T21:43:18.361Z,102456.81
2018-02-22T21:45:46.915Z,102454.80
2018-02-22T21:48:15.226Z,102456.33
2018-02-22T21:50:43.564Z,102456.79
2018-02-22T21:53:11.916Z,102458.98
2018-02-22T21:55:40.217Z,102448.84
2018-02-22T21:58:09.355Z,102452.55
2018-02-22T22:00:37.710Z,102450.40
2018-02-22T22:03:06.033Z,102456.06
2018-02-22T22:05:34.342Z,102458.91
2018-02-22T22:08:03.740Z,102462.45
2018-02-22T22:10:32.818Z,102462.33
2018-02-22T22:13:01.132Z,102462.55
2018-02-22T22:15:29.472Z,102462.38
2018-02-22T22:17:57.848Z,102465.20
2018-02-22T22:20:26.150Z,102472.65
2018-02-22T22:22:55.279Z,102464.84
2018-02-22T22:25:23.624Z,102463.48
2018-02-22T22:27:52.731Z,102466.36
2018-02-22T22:30:22.181Z,102465.02
2018-02-22T22:32:50.565Z,102463.36
2018-02-22T22:35:18.876Z,102464.00
2018-02-22T22:37:47.220Z,102479.29
2018-02-22T22:40:16.334Z,102476.65
2018-02-22T22:42:44.712Z,102475.91
2018-02-22T22:45:13.042Z,102474.31
2018-02-22T22:47:41.369Z,102475.47
2018-02-22T22:50:09.668Z,102474.31
2018-02-22T22:52:39.260Z,102471.05
2018-02-22T22:55:07.601Z,102471.75
2018-02-22T22:57:35.940Z,102463.91
2018-02-22T23:00:04.338Z,102463.84
2018-02-22T23:02:32.726Z,102461.04
2018-02-22T23:05:01.081Z,102464.27
2018-02-22T23:07:29.468Z,102461.43
2018-02-22T23:09:58.575Z,102464.47
2018-02-22T23:12:27.103Z,102462.02
2018-02-22T23:14:56.429Z,102459.66
2018-02-22T23:17:24.723Z,102458.31
2018-02-22T23:19:53.018Z,102462.05
2018-02-22T23:22:21.395Z,102455.05
2018-02-22T23:24:49.703Z,102455.32
2018-02-22T23:27:18.024Z,102456.74
2018-02-22T23:29:46.348Z,102457.37
2018-02-22T23:32:14.667Z,102463.16
2018-02-22T23:34:42.973Z,102460.52
2018-02-22T23:37:12.216Z,102460.05
2018-02-22T23:39:40.514Z,102463.33
2018-02-22T23:45:10.152Z,102458.59
2018-02-22T23:47:38.491Z,102464.31
2018-02-22T23:50:06.788Z,102456.86
2018-02-22T23:52:35.096Z,102460.64
2018-02-22T23:55:03.701Z,102458.28
2018-02-22T23:57:32.054Z,102459.78
